Time;durP1;ratioP1;P1;durP2;ratioP2;P2;SDS_P1;SDS_P2;PMS_P1;PMS_P2;Temp;Humidity;BMP_temperature;BMP_pressure;BME280_temperature;BME280_humidity;BME280_pressure;Samples;Min_cycle;Max_cycle;Signal;HPM_P1;HPM_P2
2022/09/29 00:00:28;;;;;;;3.38;1.60;;;;;;;;;;10373836;28;20042;-46
2022/09/29 00:05:29;;;;;;;3.22;1.48;;;;;;;;;;10374251;28;20363;-46
2022/09/29 00:10:30;;;;;;;3.83;1.50;;;;;;;;;;10347472;28;20097;-46
2022/09/29 00:15:30;;;;;;;5.00;1.90;;;;;;;;;;10372477;28;20129;-46
2022/09/29 00:20:31;;;;;;;2.97;1.45;;;;;;;;;;10360266;28;20085;-46
2022/09/29 00:25:32;;;;;;;3.58;1.70;;;;;;;;;;10373484;28;20044;-46
2022/09/29 00:30:32;;;;;;;2.33;1.60;;;;;;;;;;10373333;28;20030;-46
2022/09/29 00:35:33;;;;;;;2.35;1.48;;;;;;;;;;10372705;28;20038;-46
2022/09/29 00:40:34;;;;;;;2.85;1.50;;;;;;;;;;10372966;28;20080;-47
2022/09/29 00:45:35;;;;;;;2.15;1.60;;;;;;;;;;10380397;28;20045;-47
2022/09/29 00:50:50;;;;;;;3.20;1.70;;;;;;;;;;10362417;28;20037;-46
2022/09/29 00:56:12;;;;;;;3.08;1.60;;;;;;;;;;10361856;28;20074;-47
2022/09/29 01:01:13;;;;;;;3.17;1.85;;;;;;;;;;10360156;28;20096;-48
2022/09/29 01:06:23;;;;;;;5.07;1.60;;;;;;;;;;10370980;28;20022;-46
2022/09/29 01:11:23;;;;;;;2.50;1.52;;;;;;;;;;10361118;28;20030;-46
2022/09/29 01:16:24;;;;;;;3.83;1.48;;;;;;;;;;10370660;28;20122;-46
2022/09/29 01:21:54;;;;;;;3.55;1.58;;;;;;;;;;10357416;28;20025;-46
2022/09/29 01:27:23;;;;;;;4.80;1.60;;;;;;;;;;10363180;28;20021;-46
2022/09/29 01:33:01;;;;;;;4.07;1.40;;;;;;;;;;10360909;28;20033;-47
2022/09/29 01:38:35;;;;;;;2.50;1.50;;;;;;;;;;10356524;28;20034;-46
2022/09/29 01:43:44;;;;;;;2.47;1.65;;;;;;;;;;10370104;28;20029;-47
2022/09/29 01:48:51;;;;;;;2.53;1.38;;;;;;;;;;10359412;28;20064;-47
2022/09/29 01:53:56;;;;;;;3.58;1.40;;;;;;;;;;10362973;28;20022;-46
2022/09/29 01:59:09;;;;;;;4.32;1.60;;;;;;;;;;10377966;28;20022;-47
2022/09/29 02:04:26;;;;;;;1.92;1.23;;;;;;;;;;10354357;28;20041;-46
2022/09/29 02:09:35;;;;;;;2.08;1.30;;;;;;;;;;10369125;28;20030;-46
2022/09/29 02:14:42;;;;;;;4.25;1.42;;;;;;;;;;10368119;28;20099;-46
2022/09/29 02:19:42;;;;;;;4.53;1.55;;;;;;;;;;10366219;28;20073;-47
2022/09/29 02:24:44;;;;;;;1.42;1.10;;;;;;;;;;10368172;28;20026;-46
2022/09/29 02:29:45;;;;;;;2.47;1.17;;;;;;;;;;10368633;28;20025;-47
2022/09/29 02:34:49;;;;;;;2.78;1.33;;;;;;;;;;10368708;28;20034;-47
2022/09/29 02:39:49;;;;;;;2.85;1.45;;;;;;;;;;10367810;28;20025;-46
2022/09/29 02:45:12;;;;;;;1.20;1.10;;;;;;;;;;10354466;28;20022;-46
2022/09/29 02:51:06;;;;;;;2.28;1.42;;;;;;;;;;10368579;28;20472;-48
2022/09/29 02:56:39;;;;;;;1.67;1.30;;;;;;;;;;10352098;28;20477;-46
2022/09/29 03:01:55;;;;;;;2.90;1.50;;;;;;;;;;10362261;28;20077;-46
2022/09/29 03:06:56;;;;;;;1.80;1.25;;;;;;;;;;10367147;28;20326;-47
2022/09/29 03:11:57;;;;;;;2.80;1.50;;;;;;;;;;10367414;28;21046;-48
2022/09/29 03:16:57;;;;;;;6.55;1.52;;;;;;;;;;10367322;28;20058;-46
2022/09/29 03:21:58;;;;;;;2.67;1.67;;;;;;;;;;10367037;28;20037;-46
2022/09/29 03:26:59;;;;;;;1.55;1.30;;;;;;;;;;10367333;28;20026;-47
2022/09/29 03:32:00;;;;;;;1.95;1.20;;;;;;;;;;10365761;28;20450;-46
2022/09/29 03:37:01;;;;;;;2.53;1.40;;;;;;;;;;10360870;28;20405;-46
2022/09/29 03:42:01;;;;;;;2.83;1.25;;;;;;;;;;10366666;28;20445;-46
2022/09/29 03:47:02;;;;;;;1.88;1.38;;;;;;;;;;10366795;28;20093;-46
2022/09/29 03:52:02;;;;;;;2.25;1.40;;;;;;;;;;10360975;28;20377;-46
2022/09/29 03:57:03;;;;;;;1.77;1.33;;;;;;;;;;10359575;28;20027;-47
2022/09/29 04:02:04;;;;;;;2.50;1.52;;;;;;;;;;10362225;28;20034;-46
2022/09/29 04:07:04;;;;;;;3.55;1.27;;;;;;;;;;10366878;28;20026;-46
2022/09/29 04:12:05;;;;;;;1.65;1.30;;;;;;;;;;10365820;28;20034;-46
2022/09/29 04:17:06;;;;;;;4.40;1.30;;;;;;;;;;10365671;28;20028;-47
2022/09/29 04:22:06;;;;;;;2.15;1.38;;;;;;;;;;10366063;28;20042;-52
2022/09/29 04:27:07;;;;;;;4.78;1.00;;;;;;;;;;10364818;28;20018;-46
2022/09/29 04:32:07;;;;;;;1.40;1.30;;;;;;;;;;10363281;28;20026;-46
2022/09/29 04:37:11;;;;;;;2.42;1.38;;;;;;;;;;10364959;28;20030;-46
2022/09/29 04:42:12;;;;;;;2.10;1.00;;;;;;;;;;10367017;28;20038;-51
2022/09/29 04:47:12;;;;;;;2.85;1.27;;;;;;;;;;10373103;28;20417;-47
2022/09/29 04:52:13;;;;;;;3.17;1.08;;;;;;;;;;10370774;28;20034;-46
2022/09/29 04:57:14;;;;;;;1.98;1.00;;;;;;;;;;10369991;28;20109;-48
2022/09/29 05:02:14;;;;;;;3.58;1.35;;;;;;;;;;10372028;28;20025;-46
2022/09/29 05:07:15;;;;;;;2.67;1.50;;;;;;;;;;10372055;28;20096;-46
2022/09/29 05:12:15;;;;;;;1.65;1.20;;;;;;;;;;10371481;28;20497;-46
2022/09/29 05:17:16;;;;;;;1.50;1.30;;;;;;;;;;10371922;28;20026;-46
2022/09/29 05:22:23;;;;;;;1.33;1.20;;;;;;;;;;10370584;28;20469;-49
2022/09/29 05:27:23;;;;;;;2.00;1.20;;;;;;;;;;10370946;28;20485;-46
2022/09/29 05:32:24;;;;;;;2.42;1.25;;;;;;;;;;10369555;28;20099;-46
2022/09/29 05:37:24;;;;;;;4.50;1.33;;;;;;;;;;10370725;28;20018;-47
2022/09/29 05:42:26;;;;;;;2.35;1.33;;;;;;;;;;10368374;28;20129;-46
2022/09/29 05:47:27;;;;;;;1.52;1.15;;;;;;;;;;10364667;28;20096;-46
2022/09/29 05:52:27;;;;;;;1.63;1.20;;;;;;;;;;10369730;28;20117;-45
2022/09/29 05:57:28;;;;;;;13.13;2.22;;;;;;;;;;10369449;28;20026;-46
2022/09/29 06:02:28;;;;;;;3.67;1.65;;;;;;;;;;10369838;28;20034;-47
2022/09/29 06:07:29;;;;;;;5.53;2.25;;;;;;;;;;10369594;28;20177;-55
2022/09/29 06:12:35;;;;;;;7.93;2.25;;;;;;;;;;10361812;28;20050;-51
2022/09/29 06:17:35;;;;;;;7.22;1.95;;;;;;;;;;10368191;28;20385;-54
2022/09/29 06:22:36;;;;;;;8.77;1.83;;;;;;;;;;10369075;28;20029;-46
2022/09/29 06:27:37;;;;;;;12.38;1.80;;;;;;;;;;10369062;28;20030;-49
2022/09/29 06:32:38;;;;;;;4.03;1.75;;;;;;;;;;10358514;28;20509;-47
2022/09/29 06:37:45;;;;;;;14.35;2.10;;;;;;;;;;10365134;28;20029;-52
2022/09/29 06:42:45;;;;;;;3.83;1.80;;;;;;;;;;10357905;28;20112;-51
2022/09/29 06:47:46;;;;;;;10.55;2.08;;;;;;;;;;10367971;28;20026;-47
2022/09/29 06:52:49;;;;;;;5.10;1.75;;;;;;;;;;10361155;28;20030;-47
2022/09/29 06:57:49;;;;;;;9.77;1.73;;;;;;;;;;10365395;28;20084;-46
2022/09/29 07:02:50;;;;;;;4.80;2.00;;;;;;;;;;10358775;28;20092;-51
2022/09/29 07:07:50;;;;;;;5.03;1.45;;;;;;;;;;10367124;28;20026;-57
2022/09/29 07:12:51;;;;;;;3.58;1.50;;;;;;;;;;10367353;28;20050;-51
2022/09/29 07:17:52;;;;;;;6.90;2.03;;;;;;;;;;10358509;28;20096;-55
2022/09/29 07:22:52;;;;;;;6.03;1.70;;;;;;;;;;10354474;28;20045;-46
2022/09/29 07:27:53;;;;;;;6.65;1.40;;;;;;;;;;10353888;28;20045;-47
2022/09/29 07:32:54;;;;;;;5.47;1.60;;;;;;;;;;10363887;28;20038;-54
2022/09/29 07:37:55;;;;;;;10.38;1.70;;;;;;;;;;10365847;28;20034;-46
2022/09/29 07:42:58;;;;;;;4.97;1.70;;;;;;;;;;10363065;28;20053;-52
2022/09/29 07:47:59;;;;;;;16.50;1.90;;;;;;;;;;10358729;28;20485;-51
2022/09/29 07:53:00;;;;;;;7.93;2.00;;;;;;;;;;10365692;28;20049;-46
2022/09/29 07:58:01;;;;;;;6.82;1.70;;;;;;;;;;10365307;28;20034;-49
2022/09/29 08:03:05;;;;;;;4.10;1.50;;;;;;;;;;10362760;28;20040;-47
2022/09/29 08:08:06;;;;;;;7.03;1.48;;;;;;;;;;10365891;28;20022;-54
2022/09/29 08:13:06;;;;;;;10.18;1.77;;;;;;;;;;10358883;28;20485;-51
2022/09/29 08:18:07;;;;;;;4.32;1.52;;;;;;;;;;10367004;28;20030;-50
2022/09/29 08:23:08;;;;;;;3.90;1.58;;;;;;;;;;10368540;28;20092;-47
2022/09/29 08:28:10;;;;;;;7.88;1.67;;;;;;;;;;10373250;28;20025;-47
2022/09/29 08:33:13;;;;;;;6.60;1.67;;;;;;;;;;10358552;28;20069;-50
2022/09/29 08:38:14;;;;;;;3.35;1.65;;;;;;;;;;10358991;28;20384;-55
2022/09/29 08:43:25;;;;;;;10.48;2.03;;;;;;;;;;10367190;28;20030;-52
2022/09/29 08:48:32;;;;;;;6.43;2.10;;;;;;;;;;10366159;28;20409;-52
2022/09/29 08:53:43;;;;;;;3.25;1.55;;;;;;;;;;10368294;28;20482;-54
2022/09/29 08:58:43;;;;;;;4.07;1.70;;;;;;;;;;10352117;28;20492;-52
2022/09/29 09:04:17;;;;;;;5.13;1.75;;;;;;;;;;10371210;28;20033;-52
2022/09/29 09:10:01;;;;;;;6.78;1.75;;;;;;;;;;10370948;28;20076;-51
2022/09/29 09:15:16;;;;;;;2.78;1.58;;;;;;;;;;10367232;28;20038;-51
2022/09/29 09:20:52;;;;;;;3.55;1.45;;;;;;;;;;10347731;28;20541;-53
2022/09/29 09:25:57;;;;;;;2.80;1.33;;;;;;;;;;10362085;28;20060;-51
2022/09/29 09:31:07;;;;;;;4.00;1.80;;;;;;;;;;10368265;28;20044;-46
2022/09/29 09:36:36;;;;;;;3.15;1.63;;;;;;;;;;10369058;28;20413;-46
2022/09/29 09:41:38;;;;;;;3.67;1.73;;;;;;;;;;10336494;28;20042;-50
2022/09/29 09:47:08;;;;;;;6.55;1.73;;;;;;;;;;10368509;28;20030;-52
2022/09/29 09:52:26;;;;;;;6.38;1.60;;;;;;;;;;10363554;28;20401;-46
2022/09/29 09:57:54;;;;;;;5.70;2.08;;;;;;;;;;10357160;28;20132;-53
2022/09/29 10:02:57;;;;;;;2.37;1.50;;;;;;;;;;10367878;28;20041;-53
2022/09/29 10:07:57;;;;;;;6.97;1.60;;;;;;;;;;10367825;28;20033;-52
2022/09/29 10:13:05;;;;;;;3.42;1.73;;;;;;;;;;10367215;28;20061;-46
2022/09/29 10:18:21;;;;;;;2.95;1.60;;;;;;;;;;10366680;28;20037;-55
2022/09/29 10:23:32;;;;;;;2.88;1.60;;;;;;;;;;10364432;28;20406;-52
2022/09/29 10:28:48;;;;;;;2.85;1.65;;;;;;;;;;10365142;28;20204;-50
2022/09/29 10:33:53;;;;;;;2.10;1.58;;;;;;;;;;10366258;28;20060;-52
2022/09/29 10:38:55;;;;;;;4.63;2.10;;;;;;;;;;10362784;28;20050;-52
2022/09/29 10:43:55;;;;;;;2.30;1.58;;;;;;;;;;10367797;28;20045;-46
2022/09/29 10:49:19;;;;;;;4.90;1.70;;;;;;;;;;10364619;28;20080;-49
2022/09/29 10:54:24;;;;;;;7.47;1.85;;;;;;;;;;10367620;28;20296;-47
2022/09/29 10:59:26;;;;;;;4.47;1.65;;;;;;;;;;10366471;28;20493;-51
2022/09/29 11:04:33;;;;;;;6.10;2.08;;;;;;;;;;10366095;28;20029;-53
2022/09/29 11:09:44;;;;;;;4.10;1.85;;;;;;;;;;10365684;28;20026;-46
2022/09/29 11:14:45;;;;;;;7.07;1.60;;;;;;;;;;10359009;28;20279;-47
2022/09/29 11:19:46;;;;;;;3.63;1.30;;;;;;;;;;10360804;28;20182;-46
2022/09/29 11:24:52;;;;;;;5.15;1.83;;;;;;;;;;10359763;28;20037;-52
2022/09/29 11:30:03;;;;;;;4.10;1.50;;;;;;;;;;10365323;28;20108;-53
2022/09/29 11:35:22;;;;;;;4.78;1.65;;;;;;;;;;10377440;28;20044;-46
2022/09/29 11:41:00;;;;;;;3.80;1.50;;;;;;;;;;10359457;28;20508;-46
2022/09/29 11:46:22;;;;;;;2.20;1.30;;;;;;;;;;10366868;28;20038;-46
2022/09/29 11:51:54;;;;;;;3.05;1.30;;;;;;;;;;10366585;28;20048;-53
2022/09/29 11:56:58;;;;;;;3.55;1.75;;;;;;;;;;10373859;28;20485;-49
2022/09/29 12:02:34;;;;;;;4.75;1.55;;;;;;;;;;10374409;28;20466;-53
2022/09/29 12:08:09;;;;;;;3.80;1.70;;;;;;;;;;10366433;28;20374;-45
2022/09/29 12:13:26;;;;;;;5.80;1.70;;;;;;;;;;10368032;28;20506;-52
2022/09/29 12:18:42;;;;;;;4.65;1.63;;;;;;;;;;10370585;28;20053;-51
2022/09/29 12:23:44;;;;;;;2.78;1.60;;;;;;;;;;10377204;28;20708;-51
2022/09/29 12:29:07;;;;;;;6.75;1.38;;;;;;;;;;10374065;28;20129;-46
2022/09/29 12:34:19;;;;;;;3.72;1.30;;;;;;;;;;10367465;28;20414;-52
2022/09/29 12:39:55;;;;;;;5.93;1.50;;;;;;;;;;10370327;28;20109;-50
2022/09/29 12:45:35;;;;;;;5.15;1.60;;;;;;;;;;10366121;28;20096;-50
2022/09/29 12:51:30;;;;;;;4.65;1.67;;;;;;;;;;10370415;28;20045;-50
2022/09/29 12:56:39;;;;;;;3.97;1.48;;;;;;;;;;10362931;28;20038;-53
2022/09/29 13:01:40;;;;;;;4.85;1.48;;;;;;;;;;10364337;28;20034;-55
2022/09/29 13:07:01;;;;;;;2.30;1.33;;;;;;;;;;10369087;28;20037;-55
2022/09/29 13:12:26;;;;;;;3.22;1.45;;;;;;;;;;10368749;28;20033;-51
2022/09/29 13:18:07;;;;;;;3.58;1.38;;;;;;;;;;10370850;28;20033;-49
2022/09/29 13:23:43;;;;;;;4.82;1.42;;;;;;;;;;10367298;28;20025;-46
2022/09/29 13:28:47;;;;;;;2.67;1.50;;;;;;;;;;10370934;28;20226;-51
2022/09/29 13:33:52;;;;;;;2.63;1.38;;;;;;;;;;10358934;28;20057;-55
2022/09/29 13:38:57;;;;;;;12.05;1.45;;;;;;;;;;10367917;28;20034;-47
2022/09/29 13:43:57;;;;;;;18.35;1.77;;;;;;;;;;10369434;28;20042;-47
2022/09/29 13:49:07;;;;;;;4.63;1.20;;;;;;;;;;10369475;28;20034;-49
2022/09/29 13:54:40;;;;;;;7.30;1.75;;;;;;;;;;10368862;28;20362;-54
2022/09/29 14:00:14;;;;;;;25.52;2.00;;;;;;;;;;10357313;28;20025;-57
2022/09/29 14:05:23;;;;;;;63.33;3.67;;;;;;;;;;10364744;28;20516;-58
2022/09/29 14:10:29;;;;;;;50.00;3.53;;;;;;;;;;10369687;28;20025;-60
2022/09/29 14:15:36;;;;;;;15.23;1.70;;;;;;;;;;10361109;28;20044;-60
2022/09/29 14:20:36;;;;;;;19.80;2.42;;;;;;;;;;10362952;28;20037;-61
2022/09/29 14:25:39;;;;;;;22.17;2.20;;;;;;;;;;10361871;28;20037;-60
2022/09/29 14:30:49;;;;;;;31.13;2.35;;;;;;;;;;10368858;28;20120;-60
2022/09/29 14:35:54;;;;;;;7.82;2.22;;;;;;;;;;10368530;28;20036;-61
2022/09/29 14:41:01;;;;;;;6.72;2.10;;;;;;;;;;10348150;28;20022;-60
2022/09/29 14:56:58;;;;;;;7.55;1.80;;;;;;;;;;10359852;28;20050;-60
2022/09/29 15:02:10;;;;;;;10.48;1.30;;;;;;;;;;10359132;28;20030;-60
2022/09/29 15:07:13;;;;;;;9.30;1.75;;;;;;;;;;10361139;28;20037;-61
2022/09/29 15:12:14;;;;;;;5.78;1.60;;;;;;;;;;10366199;28;20565;-60
2022/09/29 15:17:30;;;;;;;9.25;1.73;;;;;;;;;;10367090;28;20409;-61
2022/09/29 15:22:40;;;;;;;3.88;1.50;;;;;;;;;;10365441;28;20582;-61
2022/09/29 15:27:42;;;;;;;6.18;1.48;;;;;;;;;;10366504;28;20254;-60
2022/09/29 15:32:43;;;;;;;7.70;1.80;;;;;;;;;;10370502;28;20037;-60
2022/09/29 15:37:49;;;;;;;4.97;1.42;;;;;;;;;;10369210;28;20393;-62
2022/09/29 15:42:54;;;;;;;5.82;1.65;;;;;;;;;;10370986;28;20513;-61
2022/09/29 15:48:03;;;;;;;8.60;1.30;;;;;;;;;;10365395;28;20030;-63
2022/09/29 15:53:04;;;;;;;4.07;1.67;;;;;;;;;;10366058;28;20022;-62
2022/09/29 15:58:23;;;;;;;8.52;1.70;;;;;;;;;;10366897;28;20030;-61
2022/09/29 16:03:26;;;;;;;5.18;1.25;;;;;;;;;;10358616;28;20363;-61
2022/09/29 16:08:27;;;;;;;7.88;1.70;;;;;;;;;;10366373;28;20026;-61
2022/09/29 16:13:31;;;;;;;4.60;1.60;;;;;;;;;;10366253;28;20527;-62
2022/09/29 16:18:37;;;;;;;2.88;1.35;;;;;;;;;;10366471;28;20034;-63
2022/09/29 16:23:41;;;;;;;3.30;1.20;;;;;;;;;;10352104;28;20436;-62
2022/09/29 16:28:59;;;;;;;4.20;1.30;;;;;;;;;;10360007;28;20084;-63
2022/09/29 16:33:59;;;;;;;;;;;;;;;;;;10363601;28;20347;-62
2022/09/29 16:39:00;;;;;;;10.10;1.85;;;;;;;;;;10365809;28;19917;-62
2022/09/29 16:44:09;;;;;;;3.13;1.20;;;;;;;;;;10370420;28;20029;-62
2022/09/29 16:49:14;;;;;;;5.90;1.48;;;;;;;;;;10351119;28;20296;-62
2022/09/29 16:54:15;;;;;;;4.22;1.55;;;;;;;;;;10371372;28;20053;-61
2022/09/29 16:59:17;;;;;;;5.88;1.27;;;;;;;;;;10370553;28;20054;-61
2022/09/29 17:04:17;;;;;;;5.38;1.45;;;;;;;;;;10372623;28;20389;-61
2022/09/29 17:09:19;;;;;;;4.72;1.00;;;;;;;;;;10371630;28;20021;-61
2022/09/29 17:14:22;;;;;;;1.23;0.98;;;;;;;;;;10368789;23;20185;-60
2022/09/29 17:19:23;;;;;;;6.47;1.23;;;;;;;;;;10347233;28;20022;-60
2022/09/29 17:24:23;;;;;;;5.05;1.13;;;;;;;;;;10360013;28;20045;-60
2022/09/29 17:29:23;;;;;;;3.90;1.40;;;;;;;;;;10369178;28;20095;-61
2022/09/29 17:34:27;;;;;;;1.63;1.10;;;;;;;;;;10369672;28;21692;-60
2022/09/29 17:39:28;;;;;;;7.40;1.40;;;;;;;;;;10367949;28;20033;-60
2022/09/29 17:44:28;;;;;;;3.50;1.00;;;;;;;;;;10375525;28;20041;-60
2022/09/29 17:49:28;;;;;;;2.92;1.10;;;;;;;;;;10363730;28;20075;-60
2022/09/29 17:54:28;;;;;;;2.20;1.20;;;;;;;;;;10370156;28;20026;-60
2022/09/29 17:59:30;;;;;;;1.95;1.13;;;;;;;;;;10364029;28;20105;-60
2022/09/29 18:04:32;;;;;;;3.95;1.60;;;;;;;;;;10369537;28;20061;-60
2022/09/29 18:09:33;;;;;;;4.32;1.60;;;;;;;;;;10370182;28;20177;-60
2022/09/29 18:14:36;;;;;;;2.85;1.00;;;;;;;;;;10369433;28;20116;-60
2022/09/29 18:19:38;;;;;;;2.80;1.60;;;;;;;;;;10364567;28;20030;-59
2022/09/29 18:24:38;;;;;;;6.18;4.10;;;;;;;;;;10354142;28;20029;-60
2022/09/29 18:29:38;;;;;;;11.82;7.00;;;;;;;;;;10369487;28;20084;-60
2022/09/29 18:34:38;;;;;;;11.38;7.93;;;;;;;;;;10354488;28;20105;-60
2022/09/29 18:39:39;;;;;;;14.27;9.25;;;;;;;;;;10368049;28;20034;-60
2022/09/29 18:44:40;;;;;;;12.18;8.77;;;;;;;;;;10369061;28;20404;-59
2022/09/29 18:49:40;;;;;;;11.20;9.63;;;;;;;;;;10366346;28;20057;-60
2022/09/29 18:54:40;;;;;;;15.88;9.50;;;;;;;;;;10367994;28;20058;-60
2022/09/29 18:59:41;;;;;;;18.15;9.13;;;;;;;;;;10354225;28;20030;-60
2022/09/29 19:04:41;;;;;;;13.87;9.50;;;;;;;;;;10367635;28;20030;-60
2022/09/29 19:09:41;;;;;;;9.82;7.97;;;;;;;;;;10364448;28;20037;-61
2022/09/29 19:14:41;;;;;;;11.27;7.72;;;;;;;;;;10365154;28;20370;-60
2022/09/29 19:19:42;;;;;;;11.07;7.38;;;;;;;;;;10367225;28;20022;-60
2022/09/29 19:24:42;;;;;;;10.30;6.83;;;;;;;;;;10367603;28;20042;-59
2022/09/29 19:29:42;;;;;;;10.60;6.60;;;;;;;;;;10367193;28;20076;-60
2022/09/29 19:34:43;;;;;;;10.15;6.28;;;;;;;;;;10367100;28;20455;-60
2022/09/29 19:39:43;;;;;;;10.10;6.15;;;;;;;;;;10353465;28;20030;-60
2022/09/29 19:44:43;;;;;;;9.87;5.33;;;;;;;;;;10365132;28;20034;-60
2022/09/29 19:49:44;;;;;;;11.90;4.93;;;;;;;;;;10363506;28;20045;-60
2022/09/29 19:54:44;;;;;;;7.53;4.80;;;;;;;;;;10366764;28;20128;-60
2022/09/29 19:59:45;;;;;;;4.50;3.72;;;;;;;;;;10366536;28;20459;-60
2022/09/29 20:04:45;;;;;;;5.35;3.75;;;;;;;;;;10367133;28;20048;-60
2022/09/29 20:09:46;;;;;;;5.73;3.80;;;;;;;;;;10358408;28;20033;-60
2022/09/29 20:14:46;;;;;;;7.37;3.80;;;;;;;;;;10372671;28;20042;-60
2022/09/29 20:19:46;;;;;;;5.15;3.00;;;;;;;;;;10374737;28;20055;-59
2022/09/29 20:24:47;;;;;;;5.30;3.17;;;;;;;;;;10374188;28;20025;-60
2022/09/29 20:29:47;;;;;;;5.18;2.92;;;;;;;;;;10374032;28;20038;-60
2022/09/29 20:34:47;;;;;;;4.87;3.13;;;;;;;;;;10374523;28;20069;-60
2022/09/29 20:39:49;;;;;;;3.78;2.50;;;;;;;;;;10359988;28;20033;-60
2022/09/29 20:44:53;;;;;;;8.10;2.30;;;;;;;;;;10372066;28;20401;-59
2022/09/29 20:49:55;;;;;;;2.17;1.90;;;;;;;;;;10373345;28;20018;-60
2022/09/29 20:54:58;;;;;;;3.25;2.35;;;;;;;;;;10371497;28;20026;-60
2022/09/29 20:59:58;;;;;;;3.05;2.03;;;;;;;;;;10372630;28;20022;-59
2022/09/29 21:04:58;;;;;;;3.30;2.05;;;;;;;;;;10372454;28;20037;-59
2022/09/29 21:10:02;;;;;;;18.67;4.00;;;;;;;;;;10371454;28;20085;-59
2022/09/29 21:15:03;;;;;;;20.88;3.17;;;;;;;;;;10371300;28;20586;-59
2022/09/29 21:20:03;;;;;;;15.02;3.10;;;;;;;;;;10366234;28;20026;-60
2022/09/29 21:25:04;;;;;;;9.10;2.75;;;;;;;;;;10369749;28;20037;-59
2022/09/29 21:30:04;;;;;;;16.95;2.47;;;;;;;;;;10371587;28;20037;-59
2022/09/29 21:35:05;;;;;;;15.55;2.50;;;;;;;;;;10371860;28;20025;-60
2022/09/29 21:40:06;;;;;;;14.13;2.45;;;;;;;;;;10370386;28;20080;-60
2022/09/29 21:45:08;;;;;;;16.88;2.72;;;;;;;;;;10368964;28;20109;-59
2022/09/29 21:50:10;;;;;;;19.10;2.80;;;;;;;;;;10364213;28;20052;-59
2022/09/29 21:55:11;;;;;;;9.95;2.38;;;;;;;;;;10335502;28;20029;-59
2022/09/29 22:00:11;;;;;;;7.63;2.10;;;;;;;;;;10370383;28;20034;-60
2022/09/29 22:05:12;;;;;;;11.93;2.28;;;;;;;;;;10369479;28;20049;-60
2022/09/29 22:10:12;;;;;;;6.70;1.85;;;;;;;;;;10367836;28;20026;-60
2022/09/29 22:15:12;;;;;;;10.68;1.88;;;;;;;;;;10361240;28;20609;-60
2022/09/29 22:20:13;;;;;;;7.33;1.80;;;;;;;;;;10363192;28;20032;-60
2022/09/29 22:25:13;;;;;;;6.15;2.20;;;;;;;;;;10360626;28;20040;-60
2022/09/29 22:30:13;;;;;;;13.47;1.63;;;;;;;;;;10356559;28;20477;-60
2022/09/29 22:35:14;;;;;;;13.57;2.37;;;;;;;;;;10369740;28;20048;-60
2022/09/29 22:40:15;;;;;;;8.18;2.08;;;;;;;;;;10369801;28;20026;-60
2022/09/29 22:45:15;;;;;;;6.85;1.70;;;;;;;;;;10369818;28;20042;-60
2022/09/29 22:50:16;;;;;;;11.75;1.77;;;;;;;;;;10368683;28;20107;-60
2022/09/29 22:55:16;;;;;;;7.82;1.60;;;;;;;;;;10368389;28;20033;-60
2022/09/29 23:00:17;;;;;;;5.97;1.48;;;;;;;;;;10369352;28;20037;-60
2022/09/29 23:05:18;;;;;;;7.90;1.70;;;;;;;;;;10367803;28;20034;-60
2022/09/29 23:10:18;;;;;;;5.80;1.90;;;;;;;;;;10368990;28;20030;-60
2022/09/29 23:15:18;;;;;;;7.15;2.17;;;;;;;;;;10368693;28;20050;-60
2022/09/29 23:20:19;;;;;;;4.00;1.57;;;;;;;;;;10369208;28;20137;-60
2022/09/29 23:25:19;;;;;;;5.68;1.35;;;;;;;;;;10368708;28;20042;-60
2022/09/29 23:30:19;;;;;;;4.80;1.38;;;;;;;;;;10368207;28;20030;-59
2022/09/29 23:35:19;;;;;;;8.75;1.80;;;;;;;;;;10368229;28;20041;-58
2022/09/29 23:40:20;;;;;;;6.03;1.73;;;;;;;;;;10368319;28;20022;-58
2022/09/29 23:45:20;;;;;;;3.85;1.73;;;;;;;;;;10368091;28;20393;-58
2022/09/29 23:50:21;;;;;;;3.60;1.73;;;;;;;;;;10380406;28;20549;-58
2022/09/29 23:55:21;;;;;;;2.80;1.35;;;;;;;;;;10381867;28;20061;-58
